Harnell Park, Minnesota
Current Conditions -  °F | °C
As of 10:55 PM on Friday 21 Nov 2014 (Local Time) from KDLH Reporting Station
Overcast Overcast  
Wind Chill: 15°   Ceiling: 11000
Heat Index: 28°   Visibility: 8mi
Dew Point: 21°   Wind: 18mph
Humidity: 75%   Direction: 230°SW
Pressure: 29.72"   Gusts: 29mph
Location:  46.8859°N, 92.4258°W
Report Text: KDLH 220455Z 23016G25KT 8SM OVC110 M02/M06 A2972 RMK AO2 PK WND 22029/0359 SLP089 T10221061
Loading
Personal Weather Stations






























Interactive Weather Map New forecast layout! Learn more

10-Day Weather Forecast

Advertisements
Track Severe Weather on mobile